This is the latest recevied weather packets stored in our database for station/object EMGATE. If no packets are shown the sender has not sent any weather packets the latest 10 day(s).
| Time | Temp. | Humidity | Pressure | Rain* | Wind** | Luminosity | Snow |
|---|---|---|---|---|---|---|---|
| 1777354743 | 7.78° C | 69% | 1020.2 hPa | 0 mm | - | - | - |
| 1777353843 | 7.22° C | 71% | 1020.4 hPa | 0 mm | - | - | - |
| 1777352943 | 7.22° C | 72% | 1020.6 hPa | 0 mm | - | - | - |
| 1777352043 | 7.22° C | 72% | 1020.7 hPa | 0 mm | - | - | - |
| 1777351247 | 7.22° C | 71% | 1020.8 hPa | 0 mm | - | - | - |
| 1777351143 | 7.22° C | 71% | 1020.8 hPa | 0 mm | - | - | - |
| 1777350243 | 7.78° C | 71% | 1021.1 hPa | 0 mm | - | - | - |
| 1777349343 | 7.78° C | 70% | 1021.2 hPa | 0 mm | - | - | - |
| 1777348443 | 8.33° C | 70% | 1021.3 hPa | 0 mm | - | - | - |
| 1777347543 | 8.33° C | 69% | 1021.4 hPa | 0 mm | - | - | - |
| 1777346643 | 8.89° C | 68% | 1021.5 hPa | 0 mm | - | - | - |
| 1777345743 | 9.44° C | 66% | 1021.5 hPa | 0 mm | - | - | - |
| 1777344843 | 9.44° C | 66% | 1021.5 hPa | 0 mm | - | - | - |
| 1777343943 | 9.44° C | 64% | 1021.7 hPa | 0 mm | - | - | - |
| 1777343043 | 10° C | 63% | 1021.6 hPa | 0 mm | - | - | - |
| 1777342143 | 10.56° C | 62% | 1021.7 hPa | 0 mm | - | - | - |
| 1777341243 | 11.11° C | 60% | 1021.8 hPa | 0 mm | - | - | - |
| 1777340343 | 11.67° C | 58% | 1022 hPa | 0 mm | - | - | - |
| 1777339443 | 12.22° C | 55% | 1022 hPa | 0 mm | - | - | - |
| 1777338543 | 12.78° C | 53% | 1021.9 hPa | 0 mm | - | - | - |
| 1777337643 | 13.33° C | 51% | 1021.9 hPa | 0 mm | - | - | - |
| 1777336743 | 14.44° C | 49% | 1022 hPa | 0 mm | - | - | - |
| 1777335843 | 15° C | 44% | 1021.9 hPa | 0 mm | - | - | - |
| 1777334943 | 16.11° C | 42% | 1021.9 hPa | 0 mm | - | - | - |
| 1777334043 | 17.22° C | 39% | 1021.9 hPa | 0 mm | - | - | - |
* Rain latest hour (hover to see other rain measurements)
** Current wind speed in m/s (hover to see current wind gust speed)